sensor_id;sensor_type;location;lat;lon;timestamp;pressure;altitude;pressure_sealevel;temperature;humidity
16580;BME280;8402;51.466;6.806;2023-02-23T00:01:46;100961.09;;;11.77;100.00
16580;BME280;8402;51.466;6.806;2023-02-23T00:04:16;100958.56;;;11.72;100.00
16580;BME280;8402;51.466;6.806;2023-02-23T00:06:46;100958.56;;;11.72;100.00
16580;BME280;8402;51.466;6.806;2023-02-23T00:09:18;100956.94;;;11.71;100.00
16580;BME280;8402;51.466;6.806;2023-02-23T00:11:55;100956.13;;;11.71;100.00
16580;BME280;8402;51.466;6.806;2023-02-23T00:14:27;100954.53;;;11.70;100.00
16580;BME280;8402;51.466;6.806;2023-02-23T00:16:57;100955.34;;;11.70;100.00
16580;BME280;8402;51.466;6.806;2023-02-23T00:19:28;100951.81;;;11.70;100.00
16580;BME280;8402;51.466;6.806;2023-02-23T00:21:59;100958.06;;;11.70;100.00
16580;BME280;8402;51.466;6.806;2023-02-23T00:24:29;100957.56;;;11.68;100.00
16580;BME280;8402;51.466;6.806;2023-02-23T00:27:02;100955.34;;;11.70;100.00
16580;BME280;8402;51.466;6.806;2023-02-23T00:29:33;100948.28;;;11.69;100.00
16580;BME280;8402;51.466;6.806;2023-02-23T00:32:06;100949.91;;;11.70;100.00
16580;BME280;8402;51.466;6.806;2023-02-23T00:34:37;100947.50;;;11.69;100.00
16580;BME280;8402;51.466;6.806;2023-02-23T00:37:07;100945.09;;;11.67;100.00
16580;BME280;8402;51.466;6.806;2023-02-23T00:39:38;100942.88;;;11.69;100.00
16580;BME280;8402;51.466;6.806;2023-02-23T00:42:10;100938.06;;;11.66;100.00
16580;BME280;8402;51.466;6.806;2023-02-23T00:44:41;100947.34;;;11.65;100.00
16580;BME280;8402;51.466;6.806;2023-02-23T00:47:13;100942.53;;;11.62;100.00
16580;BME280;8402;51.466;6.806;2023-02-23T00:49:43;100944.75;;;11.60;100.00
16580;BME280;8402;51.466;6.806;2023-02-23T00:52:13;100933.91;;;11.60;100.00
16580;BME280;8402;51.466;6.806;2023-02-23T00:54:43;100938.53;;;11.60;100.00
16580;BME280;8402;51.466;6.806;2023-02-23T00:57:16;100942.06;;;11.60;100.00
16580;BME280;8402;51.466;6.806;2023-02-23T00:59:46;100939.47;;;11.55;100.00
16580;BME280;8402;51.466;6.806;2023-02-23T01:02:16;100939.78;;;11.53;100.00
16580;BME280;8402;51.466;6.806;2023-02-23T01:04:46;100939.00;;;11.53;100.00
16580;BME280;8402;51.466;6.806;2023-02-23T01:07:16;100939.00;;;11.53;100.00
16580;BME280;8402;51.466;6.806;2023-02-23T01:09:46;100936.59;;;11.51;100.00
16580;BME280;8402;51.466;6.806;2023-02-23T01:12:19;100940.44;;;11.50;100.00
16580;BME280;8402;51.466;6.806;2023-02-23T01:14:49;100933.38;;;11.49;100.00
16580;BME280;8402;51.466;6.806;2023-02-23T01:17:19;100941.03;;;11.47;100.00
16580;BME280;8402;51.466;6.806;2023-02-23T01:19:49;100933.03;;;11.42;100.00
16580;BME280;8402;51.466;6.806;2023-02-23T01:22:21;100938.97;;;11.44;100.00
16580;BME280;8402;51.466;6.806;2023-02-23T01:24:51;100938.66;;;11.46;100.00
16580;BME280;8402;51.466;6.806;2023-02-23T01:27:23;100938.66;;;11.46;100.00
16580;BME280;8402;51.466;6.806;2023-02-23T01:29:55;100941.69;;;11.44;100.00
16580;BME280;8402;51.466;6.806;2023-02-23T01:32:25;100938.16;;;11.44;100.00
16580;BME280;8402;51.466;6.806;2023-02-23T01:34:55;100941.50;;;11.41;100.00
16580;BME280;8402;51.466;6.806;2023-02-23T01:37:25;100938.78;;;11.41;100.00
16580;BME280;8402;51.466;6.806;2023-02-23T01:39:55;100938.31;;;11.39;100.00
16580;BME280;8402;51.466;6.806;2023-02-23T01:42:27;100928.56;;;11.38;100.00
16580;BME280;8402;51.466;6.806;2023-02-23T01:48:04;100933.19;;;11.37;100.00
16580;BME280;8402;51.466;6.806;2023-02-23T01:50:43;100937.50;;;11.38;100.00
16580;BME280;8402;51.466;6.806;2023-02-23T01:53:15;100934.00;;;11.38;100.00
16580;BME280;8402;51.466;6.806;2023-02-23T01:55:48;100931.88;;;11.35;100.00
16580;BME280;8402;51.466;6.806;2023-02-23T01:58:25;100931.88;;;11.35;100.00
16580;BME280;8402;51.466;6.806;2023-02-23T02:00:57;100936.19;;;11.36;100.00
16580;BME280;8402;51.466;6.806;2023-02-23T02:03:32;100931.41;;;11.33;100.00
16580;BME280;8402;51.466;6.806;2023-02-23T02:06:06;100932.69;;;11.35;100.00
16580;BME280;8402;51.466;6.806;2023-02-23T02:08:38;100943.88;;;11.34;100.00
16580;BME280;8402;51.466;6.806;2023-02-23T02:11:11;100931.41;;;11.33;100.00
16580;BME280;8402;51.466;6.806;2023-02-23T02:13:58;100936.84;;;11.33;100.00
16580;BME280;8402;51.466;6.806;2023-02-23T02:16:38;100935.84;;;11.28;100.00
16580;BME280;8402;51.466;6.806;2023-02-23T02:19:47;100934.56;;;11.26;100.00
16580;BME280;8402;51.466;6.806;2023-02-23T02:25:57;100933.44;;;11.27;100.00
16580;BME280;8402;51.466;6.806;2023-02-23T02:28:58;100934.75;;;11.29;100.00
16580;BME280;8402;51.466;6.806;2023-02-23T02:35:03;100934.13;;;11.33;100.00
16580;BME280;8402;51.466;6.806;2023-02-23T02:37:51;100934.31;;;11.36;100.00
16580;BME280;8402;51.466;6.806;2023-02-23T02:40:31;100935.09;;;11.37;100.00
16580;BME280;8402;51.466;6.806;2023-02-23T02:43:11;100938.31;;;11.39;100.00
16580;BME280;8402;51.466;6.806;2023-02-23T02:45:53;100936.88;;;11.41;100.00
16580;BME280;8402;51.466;6.806;2023-02-23T02:48:33;100930.63;;;11.41;100.00
16580;BME280;8402;51.466;6.806;2023-02-23T02:51:14;100928.38;;;11.43;100.00
16580;BME280;8402;51.466;6.806;2023-02-23T02:53:56;100923.47;;;11.45;100.00
16580;BME280;8402;51.466;6.806;2023-02-23T02:56:36;100930.19;;;11.47;100.00
16580;BME280;8402;51.466;6.806;2023-02-23T02:59:11;100925.53;;;11.48;100.00
16580;BME280;8402;51.466;6.806;2023-02-23T03:01:54;100927.78;;;11.46;100.00
16580;BME280;8402;51.466;6.806;2023-02-23T03:04:38;100928.25;;;11.48;100.00
16580;BME280;8402;51.466;6.806;2023-02-23T03:07:28;100926.66;;;11.47;100.00
16580;BME280;8402;51.466;6.806;2023-02-23T03:10:22;100923.94;;;11.47;100.00
16580;BME280;8402;51.466;6.806;2023-02-23T03:13:17;100926.19;;;11.45;100.00
16580;BME280;8402;51.466;6.806;2023-02-23T03:16:08;100929.22;;;11.43;100.00
16580;BME280;8402;51.466;6.806;2023-02-23T03:19:07;100933.03;;;11.42;100.00
16580;BME280;8402;51.466;6.806;2023-02-23T03:21:55;100922.00;;;11.39;100.00
16580;BME280;8402;51.466;6.806;2023-02-23T03:24:46;100929.50;;;11.33;100.00
16580;BME280;8402;51.466;6.806;2023-02-23T03:27:43;100937.16;;;11.31;100.00
16580;BME280;8402;51.466;6.806;2023-02-23T03:30:32;100933.66;;;11.30;100.00
16580;BME280;8402;51.466;6.806;2023-02-23T03:33:25;100939.06;;;11.30;100.00
16580;BME280;8402;51.466;6.806;2023-02-23T03:36:14;100938.56;;;11.28;100.00
16580;BME280;8402;51.466;6.806;2023-02-23T03:39:00;100940.00;;;11.26;100.00
16580;BME280;8402;51.466;6.806;2023-02-23T03:41:46;100950.88;;;11.26;100.00
16580;BME280;8402;51.466;6.806;2023-02-23T03:44:36;100940.81;;;11.26;100.00
16580;BME280;8402;51.466;6.806;2023-02-23T03:47:27;100945.75;;;11.24;100.00
16580;BME280;8402;51.466;6.806;2023-02-23T03:50:14;100946.88;;;11.23;100.00
16580;BME280;8402;51.466;6.806;2023-02-23T03:53:00;100948.16;;;11.26;100.00
16580;BME280;8402;51.466;6.806;2023-02-23T03:55:47;100939.84;;;11.22;100.00
16580;BME280;8402;51.466;6.806;2023-02-23T03:58:36;100949.09;;;11.21;100.00
16580;BME280;8402;51.466;6.806;2023-02-23T04:01:23;100947.00;;;11.18;100.00
16580;BME280;8402;51.466;6.806;2023-02-23T04:04:09;100939.66;;;11.19;100.00
16580;BME280;8402;51.466;6.806;2023-02-23T04:06:52;100946.38;;;11.21;100.00
16580;BME280;8402;51.466;6.806;2023-02-23T04:09:37;100949.09;;;11.21;100.00
16580;BME280;8402;51.466;6.806;2023-02-23T04:12:25;100951.31;;;11.19;100.00
16580;BME280;8402;51.466;6.806;2023-02-23T04:15:16;100942.69;;;11.17;100.00
16580;BME280;8402;51.466;6.806;2023-02-23T04:17:49;100959.47;;;11.19;100.00
16580;BME280;8402;51.466;6.806;2023-02-23T04:20:23;100949.72;;;11.18;100.00
16580;BME280;8402;51.466;6.806;2023-02-23T04:22:53;100954.34;;;11.18;100.00
16580;BME280;8402;51.466;6.806;2023-02-23T04:25:24;100952.44;;;11.18;100.00
16580;BME280;8402;51.466;6.806;2023-02-23T04:27:54;100955.16;;;11.18;100.00
16580;BME280;8402;51.466;6.806;2023-02-23T04:30:24;100962.50;;;11.18;100.00
16580;BME280;8402;51.466;6.806;2023-02-23T04:32:58;100949.56;;;11.15;100.00
16580;BME280;8402;51.466;6.806;2023-02-23T04:35:28;100961.22;;;11.15;100.00
16580;BME280;8402;51.466;6.806;2023-02-23T04:38:00;100959.59;;;11.14;100.00
16580;BME280;8402;51.466;6.806;2023-02-23T04:40:31;100960.72;;;11.13;100.00
16580;BME280;8402;51.466;6.806;2023-02-23T04:43:01;100963.44;;;11.13;100.00
16580;BME280;8402;51.466;6.806;2023-02-23T04:45:32;100962.81;;;11.16;100.00
16580;BME280;8402;51.466;6.806;2023-02-23T04:48:05;100965.53;;;11.16;100.00
16580;BME280;8402;51.466;6.806;2023-02-23T04:50:38;100962.03;;;11.16;100.00
16580;BME280;8402;51.466;6.806;2023-02-23T04:53:08;100967.75;;;11.14;100.00
16580;BME280;8402;51.466;6.806;2023-02-23T04:55:39;100966.66;;;11.15;100.00
16580;BME280;8402;51.466;6.806;2023-02-23T04:58:09;100958.00;;;11.13;100.00
16580;BME280;8402;51.466;6.806;2023-02-23T05:00:43;100967.25;;;11.12;100.00
16580;BME280;8402;51.466;6.806;2023-02-23T05:03:15;100960.22;;;11.11;100.00
16580;BME280;8402;51.466;6.806;2023-02-23T05:05:46;100964.06;;;11.10;100.00
16580;BME280;8402;51.466;6.806;2023-02-23T05:08:16;100967.25;;;11.12;100.00
16580;BME280;8402;51.466;6.806;2023-02-23T05:10:46;100972.69;;;11.12;100.00
16580;BME280;8402;51.466;6.806;2023-02-23T05:13:16;100972.69;;;11.12;100.00
16580;BME280;8402;51.466;6.806;2023-02-23T05:15:46;100966.94;;;11.14;100.00
16580;BME280;8402;51.466;6.806;2023-02-23T05:18:22;100964.06;;;11.10;100.00
16580;BME280;8402;51.466;6.806;2023-02-23T05:20:59;100965.78;;;11.06;100.00
16580;BME280;8402;51.466;6.806;2023-02-23T05:23:30;100975.25;;;11.09;100.00
16580;BME280;8402;51.466;6.806;2023-02-23T05:26:01;100972.34;;;11.05;100.00
16580;BME280;8402;51.466;6.806;2023-02-23T05:28:33;100977.75;;;11.05;100.00
16580;BME280;8402;51.466;6.806;2023-02-23T05:31:07;100970.72;;;11.04;100.00
16580;BME280;8402;51.466;6.806;2023-02-23T05:33:40;100974.72;;;11.07;100.00
16580;BME280;8402;51.466;6.806;2023-02-23T05:36:13;100967.69;;;11.06;100.00
16580;BME280;8402;51.466;6.806;2023-02-23T05:38:45;100966.28;;;11.08;100.00
16580;BME280;8402;51.466;6.806;2023-02-23T05:41:17;100967.91;;;11.09;100.00
16580;BME280;8402;51.466;6.806;2023-02-23T05:43:49;100970.47;;;11.14;100.00
16580;BME280;8402;51.466;6.806;2023-02-23T05:46:22;100969.97;;;11.12;100.00
16580;BME280;8402;51.466;6.806;2023-02-23T05:48:58;100970.34;;;11.19;100.00
16580;BME280;8402;51.466;6.806;2023-02-23T05:51:32;100973.84;;;11.20;100.00
16580;BME280;8402;51.466;6.806;2023-02-23T05:54:03;100970.81;;;11.21;100.00
16580;BME280;8402;51.466;6.806;2023-02-23T05:56:33;100972.91;;;11.24;100.00
16580;BME280;8402;51.466;6.806;2023-02-23T05:59:03;100973.25;;;11.23;100.00
16580;BME280;8402;51.466;6.806;2023-02-23T06:01:34;100982.66;;;11.25;100.00
16580;BME280;8402;51.466;6.806;2023-02-23T06:04:08;100982.97;;;11.24;100.00
16580;BME280;8402;51.466;6.806;2023-02-23T06:06:40;100977.22;;;11.25;100.00
16580;BME280;8402;51.466;6.806;2023-02-23T06:09:11;100983.66;;;11.29;100.00
16580;BME280;8402;51.466;6.806;2023-02-23T06:11:41;100978.84;;;11.26;100.00
16580;BME280;8402;51.466;6.806;2023-02-23T06:14:11;100990.69;;;11.30;100.00
16580;BME280;8402;51.466;6.806;2023-02-23T06:16:42;100991.28;;;11.27;100.00
16580;BME280;8402;51.466;6.806;2023-02-23T06:19:17;100985.38;;;11.25;100.00
16580;BME280;8402;51.466;6.806;2023-02-23T06:21:47;100998.97;;;11.25;100.00
16580;BME280;8402;51.466;6.806;2023-02-23T06:24:19;100988.41;;;11.24;100.00
16580;BME280;8402;51.466;6.806;2023-02-23T06:26:50;100994.16;;;11.22;100.00
16580;BME280;8402;51.466;6.806;2023-02-23T06:29:20;100993.19;;;11.18;100.00
16580;BME280;8402;51.466;6.806;2023-02-23T06:31:51;101003.56;;;11.16;100.00
16580;BME280;8402;51.466;6.806;2023-02-23T06:34:24;101010.72;;;11.12;100.00
16580;BME280;8402;51.466;6.806;2023-02-23T06:36:54;101002.69;;;11.07;100.00
16580;BME280;8402;51.466;6.806;2023-02-23T06:39:25;101015.19;;;11.08;100.00
16580;BME280;8402;51.466;6.806;2023-02-23T06:41:55;101016.91;;;11.04;100.00
16580;BME280;8402;51.466;6.806;2023-02-23T06:44:26;101018.31;;;11.01;100.00
16580;BME280;8402;51.466;6.806;2023-02-23T06:46:56;101033.03;;;11.00;100.00
16580;BME280;8402;51.466;6.806;2023-02-23T06:49:35;101028.50;;;10.96;100.00
16580;BME280;8402;51.466;6.806;2023-02-23T06:52:08;101039.00;;;10.89;100.00
16580;BME280;8402;51.466;6.806;2023-02-23T06:54:39;101035.78;;;10.87;100.00
16580;BME280;8402;51.466;6.806;2023-02-23T06:57:10;101039.13;;;10.84;100.00
16580;BME280;8402;51.466;6.806;2023-02-23T06:59:40;101038.25;;;10.74;100.00
16580;BME280;8402;51.466;6.806;2023-02-23T07:02:12;101034.03;;;10.68;100.00
16580;BME280;8402;51.466;6.806;2023-02-23T07:04:46;101041.69;;;10.66;100.00
16580;BME280;8402;51.466;6.806;2023-02-23T07:07:20;101048.34;;;10.60;100.00
16580;BME280;8402;51.466;6.806;2023-02-23T07:09:50;101039.41;;;10.60;100.00
16580;BME280;8402;51.466;6.806;2023-02-23T07:12:21;101047.34;;;10.56;100.00
16580;BME280;8402;51.466;6.806;2023-02-23T07:14:54;101054.38;;;10.57;100.00
16580;BME280;8402;51.466;6.806;2023-02-23T07:17:24;101059.94;;;10.52;100.00
16580;BME280;8402;51.466;6.806;2023-02-23T07:19:57;101049.19;;;10.47;100.00
16580;BME280;8402;51.466;6.806;2023-02-23T07:22:27;101060.66;;;10.44;100.00
16580;BME280;8402;51.466;6.806;2023-02-23T07:25:00;101059.06;;;10.43;100.00
16580;BME280;8402;51.466;6.806;2023-02-23T07:27:30;101057.44;;;10.42;100.00
16580;BME280;8402;51.466;6.806;2023-02-23T07:30:01;101064.50;;;10.43;100.00
16580;BME280;8402;51.466;6.806;2023-02-23T07:32:33;101069.09;;;10.42;100.00
16580;BME280;8402;51.466;6.806;2023-02-23T07:35:07;101078.75;;;10.35;100.00
16580;BME280;8402;51.466;6.806;2023-02-23T07:37:39;101077.94;;;10.34;100.00
16580;BME280;8402;51.466;6.806;2023-02-23T07:40:10;101081.19;;;10.36;100.00
16580;BME280;8402;51.466;6.806;2023-02-23T07:42:40;101074.94;;;10.36;100.00
16580;BME280;8402;51.466;6.806;2023-02-23T07:45:11;101072.34;;;10.31;100.00
16580;BME280;8402;51.466;6.806;2023-02-23T07:47:41;101074.56;;;10.29;100.00
16580;BME280;8402;51.466;6.806;2023-02-23T07:50:14;101086.50;;;10.28;100.00
16580;BME280;8402;51.466;6.806;2023-02-23T07:52:44;101091.41;;;10.26;100.00
16580;BME280;8402;51.466;6.806;2023-02-23T07:55:14;101097.66;;;10.26;100.00
16580;BME280;8402;51.466;6.806;2023-02-23T07:57:44;101095.25;;;10.25;100.00
16580;BME280;8402;51.466;6.806;2023-02-23T08:00:15;101090.63;;;10.25;100.00
16580;BME280;8402;51.466;6.806;2023-02-23T08:02:45;101100.03;;;10.28;100.00
16580;BME280;8402;51.466;6.806;2023-02-23T08:05:17;101102.47;;;10.29;100.00
16580;BME280;8402;51.466;6.806;2023-02-23T08:07:49;101099.78;;;10.29;100.00
16580;BME280;8402;51.466;6.806;2023-02-23T08:10:19;101103.28;;;10.30;100.00
16580;BME280;8402;51.466;6.806;2023-02-23T08:12:49;101104.56;;;10.32;100.00
16580;BME280;8402;51.466;6.806;2023-02-23T08:15:19;101104.88;;;10.31;100.00
16580;BME280;8402;51.466;6.806;2023-02-23T08:17:49;101114.13;;;10.30;100.00
16580;BME280;8402;51.466;6.806;2023-02-23T08:20:22;101111.22;;;10.26;100.00
16580;BME280;8402;51.466;6.806;2023-02-23T08:22:54;101112.63;;;10.24;100.00
16580;BME280;8402;51.466;6.806;2023-02-23T08:25:24;101112.91;;;10.22;100.00
16580;BME280;8402;51.466;6.806;2023-02-23T08:27:55;101112.91;;;10.22;100.00
16580;BME280;8402;51.466;6.806;2023-02-23T08:30:30;101112.69;;;10.18;100.00
16580;BME280;8402;51.466;6.806;2023-02-23T08:33:04;101115.41;;;10.18;100.00
16580;BME280;8402;51.466;6.806;2023-02-23T08:35:37;101117.00;;;10.19;100.00
16580;BME280;8402;51.466;6.806;2023-02-23T08:38:07;101120.75;;;10.24;100.00
16580;BME280;8402;51.466;6.806;2023-02-23T08:40:37;101116.94;;;10.25;100.00
16580;BME280;8402;51.466;6.806;2023-02-23T08:43:07;101123.97;;;10.26;100.00
16580;BME280;8402;51.466;6.806;2023-02-23T08:45:37;101127.16;;;10.28;100.00
16580;BME280;8402;51.466;6.806;2023-02-23T08:48:07;101129.09;;;10.27;100.00
16580;BME280;8402;51.466;6.806;2023-02-23T08:50:40;101122.84;;;10.27;100.00
16580;BME280;8402;51.466;6.806;2023-02-23T08:53:10;101124.97;;;10.30;100.00
16580;BME280;8402;51.466;6.806;2023-02-23T08:55:40;101120.53;;;10.34;100.00
16580;BME280;8402;51.466;6.806;2023-02-23T08:58:10;101129.19;;;10.36;100.00
16580;BME280;8402;51.466;6.806;2023-02-23T09:00:40;101128.59;;;10.39;100.00
16580;BME280;8402;51.466;6.806;2023-02-23T09:03:10;101133.38;;;10.42;100.00
16580;BME280;8402;51.466;6.806;2023-02-23T09:05:43;101132.91;;;10.40;100.00
16580;BME280;8402;51.466;6.806;2023-02-23T09:08:14;101132.41;;;10.38;100.00
16580;BME280;8402;51.466;6.806;2023-02-23T09:10:44;101140.44;;;10.43;100.00
16580;BME280;8402;51.466;6.806;2023-02-23T09:13:14;101134.41;;;10.46;100.00
16580;BME280;8402;51.466;6.806;2023-02-23T09:15:44;101137.72;;;10.43;100.00
16580;BME280;8402;51.466;6.806;2023-02-23T09:18:14;101137.22;;;10.41;100.00
16580;BME280;8402;51.466;6.806;2023-02-23T09:20:47;101143.44;;;10.41;100.00
16580;BME280;8402;51.466;6.806;2023-02-23T09:23:17;101144.25;;;10.42;100.00
16580;BME280;8402;51.466;6.806;2023-02-23T09:25:47;101157.94;;;10.37;100.00
16580;BME280;8402;51.466;6.806;2023-02-23T09:28:19;101147.88;;;10.37;100.00
16580;BME280;8402;51.466;6.806;2023-02-23T09:30:49;101160.34;;;10.38;100.00
16580;BME280;8402;51.466;6.806;2023-02-23T09:33:20;101159.03;;;10.36;100.00
16580;BME280;8402;51.466;6.806;2023-02-23T09:35:52;101151.88;;;10.40;100.00
16580;BME280;8402;51.466;6.806;2023-02-23T09:38:22;101155.00;;;10.47;100.00
16580;BME280;8402;51.466;6.806;2023-02-23T09:40:53;101154.91;;;10.52;100.00
16580;BME280;8402;51.466;6.806;2023-02-23T09:43:29;101156.50;;;10.53;100.00
16580;BME280;8402;51.466;6.806;2023-02-23T09:46:10;101153.78;;;10.53;100.00
16580;BME280;8402;51.466;6.806;2023-02-23T09:48:42;101161.31;;;10.56;100.00
16580;BME280;8402;51.466;6.806;2023-02-23T09:51:19;101167.53;;;10.57;100.00
16580;BME280;8402;51.466;6.806;2023-02-23T09:53:52;101163.94;;;10.61;100.00
16580;BME280;8402;51.466;6.806;2023-02-23T09:56:28;101173.56;;;10.67;100.00
16580;BME280;8402;51.466;6.806;2023-02-23T09:59:03;101180.59;;;10.68;100.00
16580;BME280;8402;51.466;6.806;2023-02-23T10:02:00;101182.81;;;10.66;100.00
16580;BME280;8402;51.466;6.806;2023-02-23T10:04:37;101182.19;;;10.69;100.00
16580;BME280;8402;51.466;6.806;2023-02-23T10:07:16;101188.03;;;10.63;100.00
16580;BME280;8402;51.466;6.806;2023-02-23T10:10:04;101189.63;;;10.64;100.00
16580;BME280;8402;51.466;6.806;2023-02-23T10:12:44;101193.28;;;10.59;100.00
16580;BME280;8402;51.466;6.806;2023-02-23T10:15:26;101198.72;;;10.59;100.00
16580;BME280;8402;51.466;6.806;2023-02-23T10:18:11;101195.47;;;10.57;100.00
16580;BME280;8402;51.466;6.806;2023-02-23T10:20:47;101196.78;;;10.60;100.00
16580;BME280;8402;51.466;6.806;2023-02-23T10:23:26;101201.81;;;10.53;100.00
16580;BME280;8402;51.466;6.806;2023-02-23T10:25:59;101201.81;;;10.53;100.00
16580;BME280;8402;51.466;6.806;2023-02-23T10:28:33;101203.22;;;10.50;100.00
16580;BME280;8402;51.466;6.806;2023-02-23T10:31:18;101203.22;;;10.50;100.00
16580;BME280;8402;51.466;6.806;2023-02-23T10:33:53;101202.00;;;10.56;100.00
16580;BME280;8402;51.466;6.806;2023-02-23T10:36:36;101200.91;;;10.57;100.00
16580;BME280;8402;51.466;6.806;2023-02-23T10:39:11;101204.13;;;10.59;100.00
16580;BME280;8402;51.466;6.806;2023-02-23T10:41:42;101214.59;;;10.66;100.00
16580;BME280;8402;51.466;6.806;2023-02-23T10:44:17;101213.16;;;10.68;100.00
16580;BME280;8402;51.466;6.806;2023-02-23T10:46:51;101208.34;;;10.65;100.00
16580;BME280;8402;51.466;6.806;2023-02-23T10:49:27;101208.63;;;10.64;100.00
16580;BME280;8402;51.466;6.806;2023-02-23T10:51:58;101204.22;;;10.54;100.00
16580;BME280;8402;51.466;6.806;2023-02-23T10:54:40;101216.78;;;10.50;100.00
16580;BME280;8402;51.466;6.806;2023-02-23T10:57:22;101208.47;;;10.46;100.00
16580;BME280;8402;51.466;6.806;2023-02-23T11:03:00;101212.38;;;10.54;100.00
16580;BME280;8402;51.466;6.806;2023-02-23T11:05:42;101213.38;;;10.58;100.00
16580;BME280;8402;51.466;6.806;2023-02-23T11:08:25;101215.31;;;10.58;100.00
16580;BME280;8402;51.466;6.806;2023-02-23T11:11:04;101218.81;;;10.58;100.00
16580;BME280;8402;51.466;6.806;2023-02-23T11:13:37;101222.03;;;10.60;100.00
16580;BME280;8402;51.466;6.806;2023-02-23T11:16:10;101219.41;;;10.55;100.00
16580;BME280;8402;51.466;6.806;2023-02-23T11:18:47;101222.72;;;10.52;100.00
16580;BME280;8402;51.466;6.806;2023-02-23T11:21:23;101222.72;;;10.52;100.00
16580;BME280;8402;51.466;6.806;2023-02-23T11:23:57;101224.81;;;10.55;100.00
16580;BME280;8402;51.466;6.806;2023-02-23T11:26:36;101223.53;;;10.53;100.00
16580;BME280;8402;51.466;6.806;2023-02-23T11:29:15;101218.41;;;10.51;100.00
16580;BME280;8402;51.466;6.806;2023-02-23T11:31:51;101223.13;;;10.59;100.00
16580;BME280;8402;51.466;6.806;2023-02-23T11:34:28;101220.91;;;10.61;100.00
16580;BME280;8402;51.466;6.806;2023-02-23T11:37:02;101218.81;;;10.58;100.00
16580;BME280;8402;51.466;6.806;2023-02-23T11:39:33;101215.31;;;10.58;100.00
16580;BME280;8402;51.466;6.806;2023-02-23T11:42:15;101214.78;;;10.56;100.00
16580;BME280;8402;51.466;6.806;2023-02-23T11:45:01;101216.09;;;10.58;100.00
16580;BME280;8402;51.466;6.806;2023-02-23T11:47:33;101215.97;;;10.63;100.00
16580;BME280;8402;51.466;6.806;2023-02-23T11:52:54;101205.34;;;10.67;100.00
16580;BME280;8402;51.466;6.806;2023-02-23T11:55:28;101217.59;;;10.64;100.00
16580;BME280;8402;51.466;6.806;2023-02-23T11:58:22;101218.81;;;10.58;100.00
16580;BME280;8402;51.466;6.806;2023-02-23T12:00:55;101213.78;;;10.65;100.00
16580;BME280;8402;51.466;6.806;2023-02-23T12:03:27;101207.97;;;10.58;100.00
16580;BME280;8402;51.466;6.806;2023-02-23T12:05:58;101208.06;;;10.53;100.00
16580;BME280;8402;51.466;6.806;2023-02-23T12:08:36;101204.31;;;10.49;100.00
16580;BME280;8402;51.466;6.806;2023-02-23T12:11:12;101199.13;;;10.53;100.00
16580;BME280;8402;51.466;6.806;2023-02-23T12:13:49;101199.13;;;10.53;100.00
16580;BME280;8402;51.466;6.806;2023-02-23T12:16:26;101200.91;;;10.57;100.00
16580;BME280;8402;51.466;6.806;2023-02-23T12:19:00;101203.03;;;10.60;100.00
16580;BME280;8402;51.466;6.806;2023-02-23T12:21:33;101198.09;;;10.62;100.00
16580;BME280;8402;51.466;6.806;2023-02-23T12:24:18;101203.34;;;10.59;100.00
16580;BME280;8402;51.466;6.806;2023-02-23T12:26:55;101212.78;;;10.61;100.00
16580;BME280;8402;51.466;6.806;2023-02-23T12:29:36;101210.16;;;10.56;100.00
16580;BME280;8402;51.466;6.806;2023-02-23T12:32:12;101212.78;;;10.61;100.00
16580;BME280;8402;51.466;6.806;2023-02-23T12:34:48;101209.56;;;10.59;100.00
16580;BME280;8402;51.466;6.806;2023-02-23T12:37:32;101206.31;;;10.57;100.00
16580;BME280;8402;51.466;6.806;2023-02-23T12:40:14;101208.53;;;10.55;100.00
16580;BME280;8402;51.466;6.806;2023-02-23T12:42:53;101211.75;;;10.57;100.00
16580;BME280;8402;51.466;6.806;2023-02-23T12:45:34;101207.44;;;10.56;100.00
16580;BME280;8402;51.466;6.806;2023-02-23T12:48:13;101207.44;;;10.56;100.00
16580;BME280;8402;51.466;6.806;2023-02-23T12:50:50;101206.94;;;10.54;100.00
16580;BME280;8402;51.466;6.806;2023-02-23T12:53:26;101207.75;;;10.55;100.00
16580;BME280;8402;51.466;6.806;2023-02-23T12:56:08;101204.22;;;10.54;100.00
16580;BME280;8402;51.466;6.806;2023-02-23T12:58:48;101204.53;;;10.53;100.00
16580;BME280;8402;51.466;6.806;2023-02-23T13:01:25;101209.16;;;10.52;100.00
16580;BME280;8402;51.466;6.806;2023-02-23T13:04:16;101203.94;;;10.42;100.00
16580;BME280;8402;51.466;6.806;2023-02-23T13:06:55;101201.13;;;10.47;100.00
16580;BME280;8402;51.466;6.806;2023-02-23T13:09:40;101201.91;;;10.47;100.00
16580;BME280;8402;51.466;6.806;2023-02-23T13:12:32;101214.19;;;10.45;100.00
16580;BME280;8402;51.466;6.806;2023-02-23T13:15:14;101207.03;;;10.49;100.00
16580;BME280;8402;51.466;6.806;2023-02-23T13:17:54;101208.16;;;10.48;100.00
16580;BME280;8402;51.466;6.806;2023-02-23T13:20:31;101214.38;;;10.48;100.00
16580;BME280;8402;51.466;6.806;2023-02-23T13:23:11;101214.38;;;10.48;100.00
16580;BME280;8402;51.466;6.806;2023-02-23T13:25:48;101217.31;;;10.52;100.00
16580;BME280;8402;51.466;6.806;2023-02-23T13:28:33;101210.78;;;10.53;100.00
16580;BME280;8402;51.466;6.806;2023-02-23T13:31:23;101212.38;;;10.54;100.00
16580;BME280;8402;51.466;6.806;2023-02-23T13:33:57;101210.56;;;10.63;100.00
16580;BME280;8402;51.466;6.806;2023-02-23T13:36:31;101214.69;;;10.61;100.00
16580;BME280;8402;51.466;6.806;2023-02-23T13:39:18;101220.59;;;10.63;100.00
16580;BME280;8402;51.466;6.806;2023-02-23T13:42:04;101217.59;;;10.64;100.00
16580;BME280;8402;51.466;6.806;2023-02-23T13:44:41;101217.59;;;10.64;100.00
16580;BME280;8402;51.466;6.806;2023-02-23T13:47:24;101221.00;;;10.56;100.00
16580;BME280;8402;51.466;6.806;2023-02-23T13:50:05;101210.38;;;10.60;100.00